sensor_id;sensor_type;location;lat;lon;timestamp;P1;durP1;ratioP1;P2;durP2;ratioP2
5890;SDS011;2971;52.420;7.080;2023-09-12T00:01:22;79.17;;;62.50;;
5890;SDS011;2971;52.420;7.080;2023-09-12T00:03:48;78.80;;;65.03;;
5890;SDS011;2971;52.420;7.080;2023-09-12T00:06:13;80.37;;;62.83;;
5890;SDS011;2971;52.420;7.080;2023-09-12T00:08:39;79.40;;;65.03;;
5890;SDS011;2971;52.420;7.080;2023-09-12T00:13:36;80.20;;;63.60;;
5890;SDS011;2971;52.420;7.080;2023-09-12T00:16:03;73.60;;;61.90;;
5890;SDS011;2971;52.420;7.080;2023-09-12T00:18:30;80.37;;;63.77;;
5890;SDS011;2971;52.420;7.080;2023-09-12T00:20:55;81.00;;;65.50;;
5890;SDS011;2971;52.420;7.080;2023-09-12T00:23:22;89.23;;;67.63;;
5890;SDS011;2971;52.420;7.080;2023-09-12T00:25:50;86.57;;;66.37;;
5890;SDS011;2971;52.420;7.080;2023-09-12T00:28:19;105.03;;;71.50;;
5890;SDS011;2971;52.420;7.080;2023-09-12T00:30:45;92.47;;;68.53;;
5890;SDS011;2971;52.420;7.080;2023-09-12T00:33:11;92.13;;;62.77;;
5890;SDS011;2971;52.420;7.080;2023-09-12T00:35:36;94.83;;;66.40;;
5890;SDS011;2971;52.420;7.080;2023-09-12T00:38:02;99.73;;;75.07;;
5890;SDS011;2971;52.420;7.080;2023-09-12T00:40:28;101.23;;;77.63;;
5890;SDS011;2971;52.420;7.080;2023-09-12T00:42:54;106.97;;;75.03;;
5890;SDS011;2971;52.420;7.080;2023-09-12T00:45:19;105.10;;;73.60;;
5890;SDS011;2971;52.420;7.080;2023-09-12T00:47:45;96.57;;;71.30;;
5890;SDS011;2971;52.420;7.080;2023-09-12T00:50:13;93.40;;;68.10;;
5890;SDS011;2971;52.420;7.080;2023-09-12T00:52:40;99.57;;;70.67;;
5890;SDS011;2971;52.420;7.080;2023-09-12T00:55:06;100.60;;;76.53;;
5890;SDS011;2971;52.420;7.080;2023-09-12T00:57:32;88.93;;;71.13;;
5890;SDS011;2971;52.420;7.080;2023-09-12T00:59:59;82.80;;;68.23;;
5890;SDS011;2971;52.420;7.080;2023-09-12T01:02:41;92.00;;;68.27;;
5890;SDS011;2971;52.420;7.080;2023-09-12T01:05:07;95.90;;;70.27;;
5890;SDS011;2971;52.420;7.080;2023-09-12T01:07:34;91.23;;;73.27;;
5890;SDS011;2971;52.420;7.080;2023-09-12T01:10:00;97.53;;;69.43;;
5890;SDS011;2971;52.420;7.080;2023-09-12T01:12:25;98.13;;;70.00;;
5890;SDS011;2971;52.420;7.080;2023-09-12T01:14:51;105.83;;;78.10;;
5890;SDS011;2971;52.420;7.080;2023-09-12T01:17:16;104.03;;;78.60;;
5890;SDS011;2971;52.420;7.080;2023-09-12T01:19:42;102.97;;;77.83;;
5890;SDS011;2971;52.420;7.080;2023-09-12T01:27:41;87.50;;;70.83;;
5890;SDS011;2971;52.420;7.080;2023-09-12T01:30:08;80.30;;;67.90;;
5890;SDS011;2971;52.420;7.080;2023-09-12T01:32:35;72.43;;;64.43;;
5890;SDS011;2971;52.420;7.080;2023-09-12T01:35:01;97.13;;;73.40;;
5890;SDS011;2971;52.420;7.080;2023-09-12T01:37:33;90.33;;;72.93;;
5890;SDS011;2971;52.420;7.080;2023-09-12T01:39:58;98.27;;;71.53;;
5890;SDS011;2971;52.420;7.080;2023-09-12T01:42:24;101.20;;;77.30;;
5890;SDS011;2971;52.420;7.080;2023-09-12T01:44:56;110.73;;;82.00;;
5890;SDS011;2971;52.420;7.080;2023-09-12T01:47:22;100.90;;;77.40;;
5890;SDS011;2971;52.420;7.080;2023-09-12T01:49:49;86.10;;;69.77;;
5890;SDS011;2971;52.420;7.080;2023-09-12T01:52:18;106.00;;;80.67;;
5890;SDS011;2971;52.420;7.080;2023-09-12T01:54:44;102.67;;;73.53;;
5890;SDS011;2971;52.420;7.080;2023-09-12T01:57:10;98.27;;;72.17;;
5890;SDS011;2971;52.420;7.080;2023-09-12T01:59:36;95.60;;;75.17;;
5890;SDS011;2971;52.420;7.080;2023-09-12T02:02:01;85.53;;;71.27;;
5890;SDS011;2971;52.420;7.080;2023-09-12T02:04:27;92.37;;;70.53;;
5890;SDS011;2971;52.420;7.080;2023-09-12T02:06:53;78.87;;;66.30;;
5890;SDS011;2971;52.420;7.080;2023-09-12T02:09:18;88.37;;;67.63;;
5890;SDS011;2971;52.420;7.080;2023-09-12T02:11:44;71.97;;;62.57;;
5890;SDS011;2971;52.420;7.080;2023-09-12T02:14:10;77.83;;;61.93;;
5890;SDS011;2971;52.420;7.080;2023-09-12T02:16:36;81.43;;;63.43;;
5890;SDS011;2971;52.420;7.080;2023-09-12T02:19:03;79.17;;;60.23;;
5890;SDS011;2971;52.420;7.080;2023-09-12T02:21:28;71.23;;;56.70;;
5890;SDS011;2971;52.420;7.080;2023-09-12T02:23:54;74.27;;;60.17;;
5890;SDS011;2971;52.420;7.080;2023-09-12T02:26:20;68.87;;;58.33;;
5890;SDS011;2971;52.420;7.080;2023-09-12T02:28:45;67.97;;;54.93;;
5890;SDS011;2971;52.420;7.080;2023-09-12T02:31:11;73.40;;;56.17;;
5890;SDS011;2971;52.420;7.080;2023-09-12T02:33:37;68.13;;;57.77;;
5890;SDS011;2971;52.420;7.080;2023-09-12T02:36:04;71.30;;;56.17;;
5890;SDS011;2971;52.420;7.080;2023-09-12T02:38:30;77.27;;;58.47;;
5890;SDS011;2971;52.420;7.080;2023-09-12T02:40:55;75.67;;;60.23;;
5890;SDS011;2971;52.420;7.080;2023-09-12T02:43:21;79.30;;;60.63;;
5890;SDS011;2971;52.420;7.080;2023-09-12T02:45:47;94.37;;;63.23;;
5890;SDS011;2971;52.420;7.080;2023-09-12T02:48:13;93.70;;;66.47;;
5890;SDS011;2971;52.420;7.080;2023-09-12T02:50:38;76.23;;;59.93;;
5890;SDS011;2971;52.420;7.080;2023-09-12T02:53:04;83.67;;;62.67;;
5890;SDS011;2971;52.420;7.080;2023-09-12T02:55:29;92.10;;;63.07;;
5890;SDS011;2971;52.420;7.080;2023-09-12T02:57:55;82.07;;;60.60;;
5890;SDS011;2971;52.420;7.080;2023-09-12T03:00:21;84.07;;;61.93;;
5890;SDS011;2971;52.420;7.080;2023-09-12T03:02:47;82.17;;;57.23;;
5890;SDS011;2971;52.420;7.080;2023-09-12T03:05:12;112.40;;;72.73;;
5890;SDS011;2971;52.420;7.080;2023-09-12T03:07:38;97.43;;;68.70;;
5890;SDS011;2971;52.420;7.080;2023-09-12T03:10:03;104.73;;;70.37;;
5890;SDS011;2971;52.420;7.080;2023-09-12T03:12:29;119.77;;;67.20;;
5890;SDS011;2971;52.420;7.080;2023-09-12T03:14:56;109.23;;;68.37;;
5890;SDS011;2971;52.420;7.080;2023-09-12T03:17:21;128.60;;;79.57;;
5890;SDS011;2971;52.420;7.080;2023-09-12T03:19:47;119.23;;;78.80;;
5890;SDS011;2971;52.420;7.080;2023-09-12T03:22:13;121.40;;;78.13;;
5890;SDS011;2971;52.420;7.080;2023-09-12T03:24:38;115.97;;;71.50;;
5890;SDS011;2971;52.420;7.080;2023-09-12T03:27:04;127.87;;;81.83;;
5890;SDS011;2971;52.420;7.080;2023-09-12T03:29:29;133.90;;;82.47;;
5890;SDS011;2971;52.420;7.080;2023-09-12T03:31:55;116.97;;;77.93;;
5890;SDS011;2971;52.420;7.080;2023-09-12T03:34:20;113.20;;;78.70;;
5890;SDS011;2971;52.420;7.080;2023-09-12T03:36:46;122.73;;;79.10;;
5890;SDS011;2971;52.420;7.080;2023-09-12T03:39:11;122.43;;;76.33;;
5890;SDS011;2971;52.420;7.080;2023-09-12T03:41:38;120.23;;;74.77;;
5890;SDS011;2971;52.420;7.080;2023-09-12T03:44:05;123.17;;;72.53;;
5890;SDS011;2971;52.420;7.080;2023-09-12T03:46:32;114.87;;;67.17;;
5890;SDS011;2971;52.420;7.080;2023-09-12T03:48:57;127.70;;;77.50;;
5890;SDS011;2971;52.420;7.080;2023-09-12T03:51:22;168.43;;;87.10;;
5890;SDS011;2971;52.420;7.080;2023-09-12T03:53:48;137.40;;;74.40;;
5890;SDS011;2971;52.420;7.080;2023-09-12T03:56:15;139.43;;;75.30;;
5890;SDS011;2971;52.420;7.080;2023-09-12T03:58:41;142.73;;;79.63;;
5890;SDS011;2971;52.420;7.080;2023-09-12T04:01:06;168.27;;;95.20;;
5890;SDS011;2971;52.420;7.080;2023-09-12T04:03:31;163.53;;;91.47;;
5890;SDS011;2971;52.420;7.080;2023-09-12T04:05:57;211.63;;;100.17;;
5890;SDS011;2971;52.420;7.080;2023-09-12T04:08:22;175.00;;;94.27;;
5890;SDS011;2971;52.420;7.080;2023-09-12T04:10:48;156.40;;;90.57;;
5890;SDS011;2971;52.420;7.080;2023-09-12T04:13:13;155.90;;;81.30;;
5890;SDS011;2971;52.420;7.080;2023-09-12T04:15:39;148.67;;;88.23;;
5890;SDS011;2971;52.420;7.080;2023-09-12T04:18:04;142.03;;;81.50;;
5890;SDS011;2971;52.420;7.080;2023-09-12T04:20:30;149.30;;;78.13;;
5890;SDS011;2971;52.420;7.080;2023-09-12T04:22:55;161.93;;;91.07;;
5890;SDS011;2971;52.420;7.080;2023-09-12T04:25:21;168.57;;;93.87;;
5890;SDS011;2971;52.420;7.080;2023-09-12T04:27:46;118.47;;;81.07;;
5890;SDS011;2971;52.420;7.080;2023-09-12T04:30:12;154.30;;;87.00;;
5890;SDS011;2971;52.420;7.080;2023-09-12T04:32:37;162.20;;;92.07;;
5890;SDS011;2971;52.420;7.080;2023-09-12T04:35:03;189.00;;;87.27;;
5890;SDS011;2971;52.420;7.080;2023-09-12T04:37:29;197.83;;;97.73;;
5890;SDS011;2971;52.420;7.080;2023-09-12T04:39:54;206.37;;;100.97;;
5890;SDS011;2971;52.420;7.080;2023-09-12T04:42:19;139.10;;;79.73;;
5890;SDS011;2971;52.420;7.080;2023-09-12T04:44:45;138.80;;;89.03;;
5890;SDS011;2971;52.420;7.080;2023-09-12T04:47:11;135.17;;;78.40;;
5890;SDS011;2971;52.420;7.080;2023-09-12T04:49:37;136.97;;;79.03;;
5890;SDS011;2971;52.420;7.080;2023-09-12T04:52:02;117.60;;;81.07;;
5890;SDS011;2971;52.420;7.080;2023-09-12T04:54:28;126.90;;;78.90;;
5890;SDS011;2971;52.420;7.080;2023-09-12T04:56:53;120.57;;;79.60;;
5890;SDS011;2971;52.420;7.080;2023-09-12T04:59:19;123.40;;;79.43;;
5890;SDS011;2971;52.420;7.080;2023-09-12T05:01:44;132.83;;;81.73;;
5890;SDS011;2971;52.420;7.080;2023-09-12T05:04:10;110.93;;;71.23;;
5890;SDS011;2971;52.420;7.080;2023-09-12T05:06:35;112.33;;;73.70;;
5890;SDS011;2971;52.420;7.080;2023-09-12T05:09:00;106.43;;;72.13;;
5890;SDS011;2971;52.420;7.080;2023-09-12T05:11:26;109.40;;;75.10;;
5890;SDS011;2971;52.420;7.080;2023-09-12T05:13:51;97.17;;;70.00;;
5890;SDS011;2971;52.420;7.080;2023-09-12T05:16:17;97.00;;;68.03;;
5890;SDS011;2971;52.420;7.080;2023-09-12T05:18:42;95.70;;;68.83;;
5890;SDS011;2971;52.420;7.080;2023-09-12T05:21:08;103.97;;;73.17;;
5890;SDS011;2971;52.420;7.080;2023-09-12T05:23:34;105.83;;;65.33;;
5890;SDS011;2971;52.420;7.080;2023-09-12T05:25:59;107.10;;;73.17;;
5890;SDS011;2971;52.420;7.080;2023-09-12T05:28:25;90.70;;;65.13;;
5890;SDS011;2971;52.420;7.080;2023-09-12T05:30:50;111.93;;;67.77;;
5890;SDS011;2971;52.420;7.080;2023-09-12T05:33:16;90.50;;;63.53;;
5890;SDS011;2971;52.420;7.080;2023-09-12T05:35:41;86.50;;;63.57;;
5890;SDS011;2971;52.420;7.080;2023-09-12T05:38:07;86.87;;;64.07;;
5890;SDS011;2971;52.420;7.080;2023-09-12T05:40:32;94.73;;;67.77;;
5890;SDS011;2971;52.420;7.080;2023-09-12T05:42:58;83.73;;;65.03;;
5890;SDS011;2971;52.420;7.080;2023-09-12T05:45:23;99.10;;;68.03;;
5890;SDS011;2971;52.420;7.080;2023-09-12T05:47:49;87.10;;;64.40;;
5890;SDS011;2971;52.420;7.080;2023-09-12T05:50:15;92.73;;;66.80;;
5890;SDS011;2971;52.420;7.080;2023-09-12T05:52:41;87.93;;;68.97;;
5890;SDS011;2971;52.420;7.080;2023-09-12T05:55:07;90.17;;;67.53;;
5890;SDS011;2971;52.420;7.080;2023-09-12T05:57:33;90.00;;;62.73;;
5890;SDS011;2971;52.420;7.080;2023-09-12T05:59:59;84.20;;;62.73;;
5890;SDS011;2971;52.420;7.080;2023-09-12T06:02:25;90.80;;;60.93;;
5890;SDS011;2971;52.420;7.080;2023-09-12T06:04:51;93.97;;;65.93;;
5890;SDS011;2971;52.420;7.080;2023-09-12T06:07:16;94.80;;;65.80;;
5890;SDS011;2971;52.420;7.080;2023-09-12T06:09:42;86.43;;;63.73;;
5890;SDS011;2971;52.420;7.080;2023-09-12T06:12:07;99.50;;;67.30;;
5890;SDS011;2971;52.420;7.080;2023-09-12T06:14:32;95.97;;;62.13;;
5890;SDS011;2971;52.420;7.080;2023-09-12T06:16:58;85.20;;;63.90;;
5890;SDS011;2971;52.420;7.080;2023-09-12T06:19:23;112.10;;;68.17;;
5890;SDS011;2971;52.420;7.080;2023-09-12T06:21:49;104.30;;;62.87;;
5890;SDS011;2971;52.420;7.080;2023-09-12T06:24:19;82.17;;;62.50;;
5890;SDS011;2971;52.420;7.080;2023-09-12T06:26:46;79.77;;;60.23;;
5890;SDS011;2971;52.420;7.080;2023-09-12T06:29:12;102.43;;;66.93;;
5890;SDS011;2971;52.420;7.080;2023-09-12T06:31:39;111.00;;;65.30;;
5890;SDS011;2971;52.420;7.080;2023-09-12T06:34:06;97.90;;;61.50;;
5890;SDS011;2971;52.420;7.080;2023-09-12T06:36:31;107.13;;;66.43;;
5890;SDS011;2971;52.420;7.080;2023-09-12T06:38:57;99.13;;;62.87;;
5890;SDS011;2971;52.420;7.080;2023-09-12T06:41:23;96.13;;;66.53;;
5890;SDS011;2971;52.420;7.080;2023-09-12T06:43:49;91.63;;;63.67;;
5890;SDS011;2971;52.420;7.080;2023-09-12T06:46:14;89.10;;;64.30;;
5890;SDS011;2971;52.420;7.080;2023-09-12T06:48:42;88.40;;;65.43;;
5890;SDS011;2971;52.420;7.080;2023-09-12T06:51:09;90.77;;;64.70;;
5890;SDS011;2971;52.420;7.080;2023-09-12T06:53:34;81.33;;;62.30;;
5890;SDS011;2971;52.420;7.080;2023-09-12T06:56:02;90.30;;;64.47;;
5890;SDS011;2971;52.420;7.080;2023-09-12T06:58:27;87.13;;;63.73;;
5890;SDS011;2971;52.420;7.080;2023-09-12T07:00:53;88.53;;;64.20;;
5890;SDS011;2971;52.420;7.080;2023-09-12T07:03:18;80.40;;;61.47;;
5890;SDS011;2971;52.420;7.080;2023-09-12T07:05:44;85.70;;;62.77;;
5890;SDS011;2971;52.420;7.080;2023-09-12T07:08:10;75.10;;;60.47;;
5890;SDS011;2971;52.420;7.080;2023-09-12T07:10:35;79.17;;;60.97;;
5890;SDS011;2971;52.420;7.080;2023-09-12T07:13:01;85.73;;;63.57;;
5890;SDS011;2971;52.420;7.080;2023-09-12T07:15:27;91.73;;;62.10;;
5890;SDS011;2971;52.420;7.080;2023-09-12T07:17:53;84.60;;;61.20;;
5890;SDS011;2971;52.420;7.080;2023-09-12T07:20:18;75.87;;;60.17;;
5890;SDS011;2971;52.420;7.080;2023-09-12T07:22:45;78.37;;;60.83;;
5890;SDS011;2971;52.420;7.080;2023-09-12T07:25:11;76.90;;;60.47;;
5890;SDS011;2971;52.420;7.080;2023-09-12T07:27:38;76.27;;;59.27;;
5890;SDS011;2971;52.420;7.080;2023-09-12T07:30:04;74.50;;;60.43;;
5890;SDS011;2971;52.420;7.080;2023-09-12T07:32:30;70.23;;;53.50;;
5890;SDS011;2971;52.420;7.080;2023-09-12T07:34:56;76.10;;;60.13;;
5890;SDS011;2971;52.420;7.080;2023-09-12T07:37:21;78.10;;;61.23;;
5890;SDS011;2971;52.420;7.080;2023-09-12T07:39:46;81.03;;;60.30;;
5890;SDS011;2971;52.420;7.080;2023-09-12T07:42:12;74.37;;;58.57;;
5890;SDS011;2971;52.420;7.080;2023-09-12T07:44:37;71.60;;;55.53;;
5890;SDS011;2971;52.420;7.080;2023-09-12T07:47:03;69.20;;;55.73;;
5890;SDS011;2971;52.420;7.080;2023-09-12T07:49:28;68.67;;;57.00;;
5890;SDS011;2971;52.420;7.080;2023-09-12T07:51:54;65.27;;;54.27;;
5890;SDS011;2971;52.420;7.080;2023-09-12T07:54:22;60.20;;;51.37;;
5890;SDS011;2971;52.420;7.080;2023-09-12T07:56:47;60.07;;;50.93;;
5890;SDS011;2971;52.420;7.080;2023-09-12T07:59:13;65.13;;;50.93;;
5890;SDS011;2971;52.420;7.080;2023-09-12T08:01:39;54.07;;;47.77;;
5890;SDS011;2971;52.420;7.080;2023-09-12T08:04:05;56.17;;;46.57;;
5890;SDS011;2971;52.420;7.080;2023-09-12T08:06:30;53.30;;;47.07;;
5890;SDS011;2971;52.420;7.080;2023-09-12T08:08:56;51.37;;;45.77;;
5890;SDS011;2971;52.420;7.080;2023-09-12T08:11:22;52.10;;;45.83;;
5890;SDS011;2971;52.420;7.080;2023-09-12T08:13:48;50.23;;;43.83;;
5890;SDS011;2971;52.420;7.080;2023-09-12T08:16:14;49.60;;;44.37;;
5890;SDS011;2971;52.420;7.080;2023-09-12T08:18:40;51.80;;;45.23;;
5890;SDS011;2971;52.420;7.080;2023-09-12T08:21:06;53.60;;;46.47;;
5890;SDS011;2971;52.420;7.080;2023-09-12T08:23:31;52.90;;;46.53;;
5890;SDS011;2971;52.420;7.080;2023-09-12T08:25:56;53.87;;;45.27;;
5890;SDS011;2971;52.420;7.080;2023-09-12T08:28:22;57.27;;;45.27;;
5890;SDS011;2971;52.420;7.080;2023-09-12T08:30:47;51.47;;;45.90;;
5890;SDS011;2971;52.420;7.080;2023-09-12T08:33:13;56.30;;;45.90;;
5890;SDS011;2971;52.420;7.080;2023-09-12T08:35:38;52.63;;;45.37;;
5890;SDS011;2971;52.420;7.080;2023-09-12T08:38:04;50.40;;;44.87;;
5890;SDS011;2971;52.420;7.080;2023-09-12T08:40:30;49.93;;;44.53;;
5890;SDS011;2971;52.420;7.080;2023-09-12T08:42:56;47.60;;;42.57;;
5890;SDS011;2971;52.420;7.080;2023-09-12T08:45:22;47.80;;;42.80;;
5890;SDS011;2971;52.420;7.080;2023-09-12T08:47:52;43.87;;;39.27;;
5890;SDS011;2971;52.420;7.080;2023-09-12T08:50:18;43.07;;;38.37;;
5890;SDS011;2971;52.420;7.080;2023-09-12T08:52:46;45.40;;;40.67;;
5890;SDS011;2971;52.420;7.080;2023-09-12T08:55:12;42.77;;;38.17;;
5890;SDS011;2971;52.420;7.080;2023-09-12T08:57:39;44.03;;;39.33;;
5890;SDS011;2971;52.420;7.080;2023-09-12T09:00:06;43.33;;;38.73;;
5890;SDS011;2971;52.420;7.080;2023-09-12T09:02:38;43.23;;;38.67;;
5890;SDS011;2971;52.420;7.080;2023-09-12T09:05:05;42.63;;;38.43;;
5890;SDS011;2971;52.420;7.080;2023-09-12T09:07:32;43.17;;;38.87;;
5890;SDS011;2971;52.420;7.080;2023-09-12T09:10:00;41.33;;;37.07;;
5890;SDS011;2971;52.420;7.080;2023-09-12T09:12:28;43.20;;;38.50;;
5890;SDS011;2971;52.420;7.080;2023-09-12T09:14:53;43.23;;;37.70;;
5890;SDS011;2971;52.420;7.080;2023-09-12T09:17:19;44.37;;;37.67;;
5890;SDS011;2971;52.420;7.080;2023-09-12T09:19:45;41.07;;;36.90;;
5890;SDS011;2971;52.420;7.080;2023-09-12T09:22:11;41.33;;;37.17;;
5890;SDS011;2971;52.420;7.080;2023-09-12T09:24:36;40.50;;;36.20;;
5890;SDS011;2971;52.420;7.080;2023-09-12T09:27:02;41.37;;;36.90;;
5890;SDS011;2971;52.420;7.080;2023-09-12T09:29:28;38.43;;;34.43;;
5890;SDS011;2971;52.420;7.080;2023-09-12T09:31:57;38.23;;;34.03;;
5890;SDS011;2971;52.420;7.080;2023-09-12T09:34:23;40.03;;;35.73;;
5890;SDS011;2971;52.420;7.080;2023-09-12T09:36:53;40.63;;;36.37;;
5890;SDS011;2971;52.420;7.080;2023-09-12T09:39:19;41.03;;;36.73;;
5890;SDS011;2971;52.420;7.080;2023-09-12T09:41:49;38.73;;;34.73;;
5890;SDS011;2971;52.420;7.080;2023-09-12T09:44:15;40.97;;;36.60;;
5890;SDS011;2971;52.420;7.080;2023-09-12T09:46:44;37.77;;;33.83;;
5890;SDS011;2971;52.420;7.080;2023-09-12T09:49:10;36.77;;;32.93;;
5890;SDS011;2971;52.420;7.080;2023-09-12T09:51:42;35.83;;;32.00;;
5890;SDS011;2971;52.420;7.080;2023-09-12T09:54:09;33.43;;;30.07;;
5890;SDS011;2971;52.420;7.080;2023-09-12T09:59:20;34.57;;;30.27;;
5890;SDS011;2971;52.420;7.080;2023-09-12T10:01:48;35.97;;;32.00;;
5890;SDS011;2971;52.420;7.080;2023-09-12T10:04:15;33.93;;;29.83;;
5890;SDS011;2971;52.420;7.080;2023-09-12T10:06:44;31.87;;;27.03;;
5890;SDS011;2971;52.420;7.080;2023-09-12T10:09:12;30.03;;;25.30;;
5890;SDS011;2971;52.420;7.080;2023-09-12T10:11:42;27.87;;;23.63;;
5890;SDS011;2971;52.420;7.080;2023-09-12T10:14:08;32.73;;;23.33;;
5890;SDS011;2971;52.420;7.080;2023-09-12T10:16:50;26.73;;;22.23;;
5890;SDS011;2971;52.420;7.080;2023-09-12T10:19:18;31.10;;;25.40;;
5890;SDS011;2971;52.420;7.080;2023-09-12T10:24:40;31.57;;;24.77;;
5890;SDS011;2971;52.420;7.080;2023-09-12T10:27:08;26.37;;;22.37;;
5890;SDS011;2971;52.420;7.080;2023-09-12T10:29:33;26.90;;;22.43;;
5890;SDS011;2971;52.420;7.080;2023-09-12T10:31:59;28.97;;;24.80;;
5890;SDS011;2971;52.420;7.080;2023-09-12T10:34:25;30.57;;;25.03;;
5890;SDS011;2971;52.420;7.080;2023-09-12T10:36:51;29.70;;;23.97;;
5890;SDS011;2971;52.420;7.080;2023-09-12T10:39:16;28.43;;;22.97;;
5890;SDS011;2971;52.420;7.080;2023-09-12T10:41:44;23.70;;;21.03;;
5890;SDS011;2971;52.420;7.080;2023-09-12T10:44:12;23.47;;;20.30;;
5890;SDS011;2971;52.420;7.080;2023-09-12T10:46:40;23.83;;;19.57;;
5890;SDS011;2971;52.420;7.080;2023-09-12T10:49:07;24.30;;;20.80;;
5890;SDS011;2971;52.420;7.080;2023-09-12T10:51:34;26.67;;;20.83;;
5890;SDS011;2971;52.420;7.080;2023-09-12T10:54:03;25.70;;;21.53;;
5890;SDS011;2971;52.420;7.080;2023-09-12T10:56:29;28.67;;;23.20;;
5890;SDS011;2971;52.420;7.080;2023-09-12T11:01:34;31.67;;;25.13;;
5890;SDS011;2971;52.420;7.080;2023-09-12T11:06:44;26.23;;;21.37;;
5890;SDS011;2971;52.420;7.080;2023-09-12T11:11:43;27.33;;;21.93;;
5890;SDS011;2971;52.420;7.080;2023-09-12T11:14:11;25.37;;;21.20;;
5890;SDS011;2971;52.420;7.080;2023-09-12T11:16:37;24.27;;;20.40;;
5890;SDS011;2971;52.420;7.080;2023-09-12T11:21:45;25.90;;;20.87;;
5890;SDS011;2971;52.420;7.080;2023-09-12T11:24:12;22.50;;;19.93;;
5890;SDS011;2971;52.420;7.080;2023-09-12T11:26:54;23.87;;;19.53;;
5890;SDS011;2971;52.420;7.080;2023-09-12T11:29:41;24.37;;;20.47;;
5890;SDS011;2971;52.420;7.080;2023-09-12T11:32:07;22.30;;;17.83;;
5890;SDS011;2971;52.420;7.080;2023-09-12T11:34:36;18.80;;;16.80;;
5890;SDS011;2971;52.420;7.080;2023-09-12T11:37:03;19.93;;;15.47;;
5890;SDS011;2971;52.420;7.080;2023-09-12T11:39:33;17.93;;;16.00;;
5890;SDS011;2971;52.420;7.080;2023-09-12T11:42:00;18.83;;;16.23;;
5890;SDS011;2971;52.420;7.080;2023-09-12T11:44:27;19.95;;;17.25;;
5890;SDS011;2971;52.420;7.080;2023-09-12T11:46:53;20.50;;;16.98;;
5890;SDS011;2971;52.420;7.080;2023-09-12T11:49:20;17.55;;;15.57;;
5890;SDS011;2971;52.420;7.080;2023-09-12T11:51:49;18.40;;;16.00;;
5890;SDS011;2971;52.420;7.080;2023-09-12T11:54:17;15.88;;;14.23;;
5890;SDS011;2971;52.420;7.080;2023-09-12T11:56:47;16.63;;;14.90;;
5890;SDS011;2971;52.420;7.080;2023-09-12T11:59:14;18.00;;;14.68;;
5890;SDS011;2971;52.420;7.080;2023-09-12T12:01:39;17.80;;;13.85;;
5890;SDS011;2971;52.420;7.080;2023-09-12T12:04:05;15.43;;;13.45;;
5890;SDS011;2971;52.420;7.080;2023-09-12T12:06:32;17.13;;;13.27;;
5890;SDS011;2971;52.420;7.080;2023-09-12T12:08:57;14.38;;;11.90;;
5890;SDS011;2971;52.420;7.080;2023-09-12T12:11:27;16.13;;;14.52;;
5890;SDS011;2971;52.420;7.080;2023-09-12T12:13:53;17.52;;;14.43;;
5890;SDS011;2971;52.420;7.080;2023-09-12T12:16:18;17.40;;;15.10;;
5890;SDS011;2971;52.420;7.080;2023-09-12T12:18:44;14.82;;;13.20;;
5890;SDS011;2971;52.420;7.080;2023-09-12T12:21:09;18.33;;;16.30;;
5890;SDS011;2971;52.420;7.080;2023-09-12T12:23:35;16.58;;;14.20;;
5890;SDS011;2971;52.420;7.080;2023-09-12T12:26:09;15.25;;;13.65;;
5890;SDS011;2971;52.420;7.080;2023-09-12T12:28:36;14.00;;;12.52;;
5890;SDS011;2971;52.420;7.080;2023-09-12T12:31:01;17.13;;;15.48;;
5890;SDS011;2971;52.420;7.080;2023-09-12T12:33:27;16.30;;;14.73;;
5890;SDS011;2971;52.420;7.080;2023-09-12T12:36:13;15.73;;;14.13;;
5890;SDS011;2971;52.420;7.080;2023-09-12T12:38:38;16.13;;;14.38;;
5890;SDS011;2971;52.420;7.080;2023-09-12T12:41:04;16.23;;;14.48;;
5890;SDS011;2971;52.420;7.080;2023-09-12T12:43:30;15.43;;;13.75;;
5890;SDS011;2971;52.420;7.080;2023-09-12T12:45:56;15.65;;;13.25;;
5890;SDS011;2971;52.420;7.080;2023-09-12T12:48:32;15.52;;;14.00;;
5890;SDS011;2971;52.420;7.080;2023-09-12T12:50:59;16.40;;;14.60;;
5890;SDS011;2971;52.420;7.080;2023-09-12T12:53:38;15.40;;;13.80;;
5890;SDS011;2971;52.420;7.080;2023-09-12T12:56:04;16.20;;;13.82;;
5890;SDS011;2971;52.420;7.080;2023-09-12T12:58:29;17.45;;;15.50;;
5890;SDS011;2971;52.420;7.080;2023-09-12T13:00:55;16.45;;;14.65;;
5890;SDS011;2971;52.420;7.080;2023-09-12T13:03:20;15.90;;;12.70;;
5890;SDS011;2971;52.420;7.080;2023-09-12T13:05:46;14.60;;;13.30;;
5890;SDS011;2971;52.420;7.080;2023-09-12T13:08:11;14.93;;;13.27;;
5890;SDS011;2971;52.420;7.080;2023-09-12T13:10:36;15.35;;;13.73;;
5890;SDS011;2971;52.420;7.080;2023-09-12T13:13:02;15.38;;;13.77;;
5890;SDS011;2971;52.420;7.080;2023-09-12T13:15:29;15.82;;;14.23;;
5890;SDS011;2971;52.420;7.080;2023-09-12T13:17:54;17.88;;;14.95;;
5890;SDS011;2971;52.420;7.080;2023-09-12T13:20:20;20.63;;;16.10;;
5890;SDS011;2971;52.420;7.080;2023-09-12T13:22:45;16.58;;;14.80;;
5890;SDS011;2971;52.420;7.080;2023-09-12T13:25:11;15.32;;;13.68;;
5890;SDS011;2971;52.420;7.080;2023-09-12T13:27:36;16.23;;;13.75;;
5890;SDS011;2971;52.420;7.080;2023-09-12T13:30:02;16.73;;;14.93;;
5890;SDS011;2971;52.420;7.080;2023-09-12T13:32:29;16.67;;;14.88;;
5890;SDS011;2971;52.420;7.080;2023-09-12T13:34:55;16.27;;;13.57;;
5890;SDS011;2971;52.420;7.080;2023-09-12T13:37:20;15.73;;;14.13;;
5890;SDS011;2971;52.420;7.080;2023-09-12T13:39:46;16.13;;;14.43;;
5890;SDS011;2971;52.420;7.080;2023-09-12T13:42:15;15.15;;;13.35;;
5890;SDS011;2971;52.420;7.080;2023-09-12T13:44:47;14.48;;;12.95;;
5890;SDS011;2971;52.420;7.080;2023-09-12T13:47:13;16.77;;;11.88;;
5890;SDS011;2971;52.420;7.080;2023-09-12T13:49:46;14.38;;;12.45;;
5890;SDS011;2971;52.420;7.080;2023-09-12T13:52:11;13.95;;;11.00;;
5890;SDS011;2971;52.420;7.080;2023-09-12T13:54:36;14.05;;;11.80;;
5890;SDS011;2971;52.420;7.080;2023-09-12T13:57:02;11.88;;;10.30;;
5890;SDS011;2971;52.420;7.080;2023-09-12T13:59:27;11.55;;;10.35;;
5890;SDS011;2971;52.420;7.080;2023-09-12T14:01:53;11.27;;;10.18;;
5890;SDS011;2971;52.420;7.080;2023-09-12T14:04:18;13.15;;;11.85;;
5890;SDS011;2971;52.420;7.080;2023-09-12T14:06:45;13.20;;;11.85;;
5890;SDS011;2971;52.420;7.080;2023-09-12T14:09:10;12.48;;;11.38;;
5890;SDS011;2971;52.420;7.080;2023-09-12T14:11:36;14.35;;;12.95;;
5890;SDS011;2971;52.420;7.080;2023-09-12T14:14:02;11.63;;;10.52;;
5890;SDS011;2971;52.420;7.080;2023-09-12T14:16:28;9.93;;;9.02;;
5890;SDS011;2971;52.420;7.080;2023-09-12T14:18:53;9.35;;;8.48;;
5890;SDS011;2971;52.420;7.080;2023-09-12T14:21:19;10.25;;;9.32;;
5890;SDS011;2971;52.420;7.080;2023-09-12T14:23:45;10.32;;;9.52;;
5890;SDS011;2971;52.420;7.080;2023-09-12T14:26:10;9.27;;;8.30;;
5890;SDS011;2971;52.420;7.080;2023-09-12T14:28:35;9.68;;;8.73;;
5890;SDS011;2971;52.420;7.080;2023-09-12T14:31:01;10.05;;;9.15;;
5890;SDS011;2971;52.420;7.080;2023-09-12T14:33:28;9.75;;;8.75;;
5890;SDS011;2971;52.420;7.080;2023-09-12T14:35:54;10.07;;;9.05;;
5890;SDS011;2971;52.420;7.080;2023-09-12T14:38:19;9.70;;;8.80;;
5890;SDS011;2971;52.420;7.080;2023-09-12T14:40:44;9.32;;;8.05;;
5890;SDS011;2971;52.420;7.080;2023-09-12T14:43:11;9.35;;;8.45;;
5890;SDS011;2971;52.420;7.080;2023-09-12T14:45:36;9.82;;;8.93;;
5890;SDS011;2971;52.420;7.080;2023-09-12T14:48:02;9.25;;;8.35;;
5890;SDS011;2971;52.420;7.080;2023-09-12T14:50:27;7.60;;;6.85;;
5890;SDS011;2971;52.420;7.080;2023-09-12T14:52:54;8.55;;;7.68;;
5890;SDS011;2971;52.420;7.080;2023-09-12T14:55:20;9.60;;;7.30;;
5890;SDS011;2971;52.420;7.080;2023-09-12T14:57:47;8.90;;;8.00;;
5890;SDS011;2971;52.420;7.080;2023-09-12T15:00:12;8.30;;;7.50;;
5890;SDS011;2971;52.420;7.080;2023-09-12T15:02:38;9.30;;;8.45;;
5890;SDS011;2971;52.420;7.080;2023-09-12T15:05:04;8.13;;;7.38;;